createdAt,value
2018-08-22T00:01:12.291Z,99.90
2018-08-22T00:03:39.199Z,99.90
2018-08-22T00:06:06.113Z,99.90
2018-08-22T00:08:38.667Z,99.90
2018-08-22T00:11:05.579Z,99.90
2018-08-22T00:13:32.495Z,99.90
2018-08-22T00:15:59.359Z,99.90
2018-08-22T00:18:26.283Z,99.90
2018-08-22T00:20:53.214Z,99.90
2018-08-22T00:23:20.155Z,99.90
2018-08-22T00:25:47.063Z,99.90
2018-08-22T00:28:13.971Z,99.90
2018-08-22T00:30:40.835Z,99.90
2018-08-22T00:33:07.769Z,99.90
2018-08-22T00:35:34.638Z,99.90
2018-08-22T00:38:01.543Z,99.90
2018-08-22T00:40:28.399Z,99.90
2018-08-22T00:42:55.317Z,99.90
2018-08-22T00:45:22.233Z,99.90
2018-08-22T00:47:49.099Z,99.90
2018-08-22T00:50:16.012Z,99.90
2018-08-22T00:52:43.947Z,99.90
2018-08-22T00:55:10.855Z,99.90
2018-08-22T00:57:37.718Z,99.90
2018-08-22T01:00:04.627Z,99.90
2018-08-22T01:02:31.880Z,99.90
2018-08-22T01:04:59.172Z,99.90
2018-08-22T01:07:26.090Z,99.90
2018-08-22T01:09:52.955Z,99.90
2018-08-22T01:12:20.043Z,99.90
2018-08-22T01:14:46.959Z,99.90
2018-08-22T01:17:13.851Z,99.90
2018-08-22T01:19:40.723Z,99.90
2018-08-22T01:22:07.682Z,99.90
2018-08-22T01:24:34.551Z,99.90
2018-08-22T01:27:01.469Z,99.90
2018-08-22T01:29:28.326Z,99.90
2018-08-22T01:31:55.281Z,99.90
2018-08-22T01:34:22.147Z,99.90
2018-08-22T01:36:49.083Z,99.90
2018-08-22T01:39:15.947Z,99.90
2018-08-22T01:41:42.855Z,99.90
2018-08-22T01:44:09.808Z,99.90
2018-08-22T01:46:36.723Z,99.90
2018-08-22T01:49:03.588Z,99.90
2018-08-22T01:51:30.456Z,99.90
2018-08-22T01:53:57.441Z,99.90
2018-08-22T01:56:24.307Z,99.90
2018-08-22T01:58:51.251Z,99.90
2018-08-22T02:01:18.105Z,99.90
2018-08-22T02:03:44.970Z,99.90
2018-08-22T02:06:11.875Z,99.90
2018-08-22T02:08:38.770Z,99.90
2018-08-22T02:11:05.640Z,99.90
2018-08-22T02:13:32.575Z,99.90
2018-08-22T02:15:59.515Z,99.90
2018-08-22T02:18:26.434Z,99.90
2018-08-22T02:20:53.295Z,99.90
2018-08-22T02:23:20.160Z,99.90
2018-08-22T02:25:47.363Z,99.90
2018-08-22T02:28:14.225Z,99.90
2018-08-22T02:30:41.092Z,99.90
2018-08-22T02:33:07.987Z,99.90
2018-08-22T02:35:34.852Z,99.90
2018-08-22T02:38:01.765Z,99.90
2018-08-22T02:40:28.685Z,99.90
2018-08-22T02:42:56.045Z,99.90
2018-08-22T02:45:23.223Z,99.90
2018-08-22T02:47:50.100Z,99.90
2018-08-22T02:50:17.008Z,99.90
2018-08-22T02:52:43.908Z,99.90
2018-08-22T02:55:10.867Z,99.90
2018-08-22T02:57:37.735Z,99.90
2018-08-22T03:00:04.659Z,99.90
2018-08-22T03:02:31.525Z,99.90
2018-08-22T03:04:58.388Z,99.90
2018-08-22T03:07:25.307Z,99.90
2018-08-22T03:09:52.197Z,99.90
2018-08-22T03:12:19.067Z,99.90
2018-08-22T03:14:46.279Z,99.90
2018-08-22T03:17:13.200Z,99.90
2018-08-22T03:19:40.167Z,99.90
2018-08-22T03:22:07.027Z,99.90
2018-08-22T03:24:33.951Z,99.90
2018-08-22T03:27:00.815Z,99.90
2018-08-22T03:29:28.009Z,99.90
2018-08-22T03:31:54.964Z,99.90
2018-08-22T03:34:21.832Z,99.90
2018-08-22T03:36:48.832Z,99.90
2018-08-22T03:39:15.735Z,99.90
2018-08-22T03:41:42.647Z,99.90
2018-08-22T03:44:09.636Z,99.90
2018-08-22T03:46:36.516Z,99.90
2018-08-22T03:49:03.535Z,99.90
2018-08-22T03:51:30.438Z,99.90
2018-08-22T03:53:57.320Z,99.90
2018-08-22T03:56:24.219Z,99.90
2018-08-22T03:58:51.167Z,99.90
2018-08-22T04:01:18.279Z,99.90
2018-08-22T04:03:45.147Z,99.90
2018-08-22T04:06:12.060Z,99.90
2018-08-22T04:08:38.972Z,99.90
2018-08-22T04:11:05.888Z,99.90
2018-08-22T04:13:32.753Z,99.90
2018-08-22T04:15:59.620Z,99.90
2018-08-22T04:18:26.531Z,99.90
2018-08-22T04:20:53.407Z,99.90
2018-08-22T04:23:20.316Z,99.90
2018-08-22T04:25:47.183Z,99.90
2018-08-22T04:28:14.071Z,99.90
2018-08-22T04:30:40.979Z,99.90
2018-08-22T04:33:07.839Z,99.90
2018-08-22T04:35:34.698Z,99.90
2018-08-22T04:38:01.608Z,99.90
2018-08-22T04:40:28.548Z,99.90
2018-08-22T04:42:55.451Z,99.90
2018-08-22T04:45:22.331Z,99.90
2018-08-22T04:47:49.243Z,99.90
2018-08-22T04:50:16.120Z,99.90
2018-08-22T04:52:43.136Z,99.90
2018-08-22T04:55:10.167Z,99.90
2018-08-22T04:57:37.045Z,99.90
2018-08-22T05:00:04.392Z,99.90
2018-08-22T05:02:31.263Z,99.90
2018-08-22T05:04:58.172Z,99.90
2018-08-22T05:07:25.308Z,99.90
2018-08-22T05:09:52.228Z,99.90
2018-08-22T05:12:19.145Z,99.90
2018-08-22T05:14:46.056Z,99.90
2018-08-22T05:17:13.000Z,99.90
2018-08-22T05:19:39.871Z,99.90
2018-08-22T05:22:06.820Z,99.90
2018-08-22T05:24:33.990Z,99.90
2018-08-22T05:27:00.851Z,99.90
2018-08-22T05:29:27.770Z,99.90
2018-08-22T05:31:57.430Z,99.90
2018-08-22T05:34:24.334Z,99.90
2018-08-22T05:36:51.247Z,99.90
2018-08-22T05:39:18.164Z,99.90
2018-08-22T05:41:45.040Z,99.90
2018-08-22T05:44:11.955Z,99.90
2018-08-22T05:46:38.870Z,99.90
2018-08-22T05:49:05.817Z,99.90
2018-08-22T05:51:32.672Z,99.90
2018-08-22T05:53:59.563Z,99.90
2018-08-22T05:56:26.475Z,99.90
2018-08-22T05:58:53.382Z,99.90
2018-08-22T06:01:20.260Z,99.90
2018-08-22T06:03:47.174Z,99.90
2018-08-22T06:06:14.084Z,99.90
2018-08-22T06:08:40.996Z,99.80
2018-08-22T06:11:07.923Z,98.80
2018-08-22T06:13:34.848Z,97.20
2018-08-22T06:16:02.063Z,96.20
2018-08-22T06:18:28.936Z,95.00
2018-08-22T06:20:55.944Z,93.80
2018-08-22T06:23:22.822Z,92.90
2018-08-22T06:25:49.693Z,92.50
2018-08-22T06:28:16.602Z,90.80
2018-08-22T06:30:43.475Z,89.00
2018-08-22T06:33:10.411Z,87.00
2018-08-22T06:35:37.455Z,85.50
2018-08-22T06:38:04.324Z,83.90
2018-08-22T06:40:31.222Z,82.00
2018-08-22T06:42:58.144Z,80.20
2018-08-22T06:45:25.191Z,77.80
2018-08-22T06:47:52.107Z,76.80
2018-08-22T06:50:19.043Z,76.80
2018-08-22T06:52:45.924Z,74.80
2018-08-22T06:55:13.096Z,73.60
2018-08-22T06:57:40.020Z,71.40
2018-08-22T07:00:06.900Z,69.90
2018-08-22T07:02:33.767Z,69.20
2018-08-22T07:05:00.681Z,68.70
2018-08-22T07:07:27.560Z,67.10
2018-08-22T07:09:54.480Z,65.20
2018-08-22T07:12:21.396Z,63.50
2018-08-22T07:14:48.292Z,63.10
2018-08-22T07:17:15.212Z,63.10
2018-08-22T07:19:42.176Z,60.90
2018-08-22T07:22:09.043Z,60.50
2018-08-22T07:24:35.907Z,61.00
2018-08-22T07:27:03.923Z,60.50
2018-08-22T07:29:30.835Z,60.70
2018-08-22T07:31:57.753Z,60.70
2018-08-22T07:34:24.656Z,59.90
2018-08-22T07:36:51.573Z,59.30
2018-08-22T07:39:18.439Z,59.80
2018-08-22T07:41:45.356Z,59.90
2018-08-22T07:44:12.261Z,59.90
2018-08-22T07:46:39.176Z,59.00
2018-08-22T07:49:06.095Z,58.20
2018-08-22T07:51:32.995Z,57.70
2018-08-22T07:53:59.858Z,57.40
2018-08-22T07:56:27.128Z,56.90
2018-08-22T07:59:12.856Z,56.80
2018-08-22T08:01:39.793Z,57.20
2018-08-22T08:04:07.363Z,56.30
2018-08-22T08:06:34.264Z,55.90
2018-08-22T08:09:01.360Z,54.50
2018-08-22T08:11:28.325Z,54.20
2018-08-22T08:13:55.194Z,54.10
2018-08-22T08:16:22.064Z,53.00
2018-08-22T08:18:48.975Z,52.40
2018-08-22T08:21:15.915Z,51.10
2018-08-22T08:23:42.784Z,51.30
2018-08-22T08:26:09.729Z,50.80
2018-08-22T08:28:36.592Z,50.30
2018-08-22T08:31:03.515Z,48.90
2018-08-22T08:33:30.382Z,48.90
2018-08-22T08:35:57.423Z,48.30
2018-08-22T08:38:24.366Z,48.10
2018-08-22T08:40:51.272Z,48.40
2018-08-22T08:43:18.238Z,48.10
2018-08-22T08:45:45.091Z,49.20
2018-08-22T08:48:11.963Z,49.10
2018-08-22T08:50:39.131Z,48.40
2018-08-22T08:53:06.023Z,48.00
2018-08-22T08:55:32.961Z,46.50
2018-08-22T08:57:59.879Z,46.80
2018-08-22T09:00:26.747Z,45.70
2018-08-22T09:02:53.664Z,45.70
2018-08-22T09:05:20.576Z,45.10
2018-08-22T09:07:47.444Z,45.80
2018-08-22T09:10:14.352Z,45.10
2018-08-22T09:12:41.224Z,44.30
2018-08-22T09:15:08.188Z,44.80
2018-08-22T09:17:35.055Z,45.10
2018-08-22T09:20:02.033Z,45.00
2018-08-22T09:22:28.953Z,45.20
2018-08-22T09:24:55.819Z,45.00
2018-08-22T09:27:22.764Z,44.10
2018-08-22T09:29:49.685Z,43.30
2018-08-22T09:32:16.820Z,43.90
2018-08-22T09:34:43.753Z,44.50
2018-08-22T09:37:10.631Z,44.00
2018-08-22T09:39:37.591Z,44.00
2018-08-22T09:42:04.523Z,44.50
2018-08-22T09:44:31.439Z,43.80
2018-08-22T09:46:58.379Z,42.50
2018-08-22T09:49:25.247Z,42.10
2018-08-22T09:51:52.160Z,41.10
2018-08-22T09:54:19.071Z,40.60
2018-08-22T09:56:45.988Z,40.50
2018-08-22T09:59:12.855Z,39.80
2018-08-22T10:01:42.973Z,39.60
2018-08-22T10:04:09.882Z,39.40
2018-08-22T10:06:47.192Z,40.10
2018-08-22T10:09:17.596Z,39.90
2018-08-22T10:11:44.497Z,39.80
2018-08-22T10:14:12.190Z,39.90
2018-08-22T10:16:39.136Z,39.60
2018-08-22T10:19:06.046Z,39.00
2018-08-22T10:21:32.904Z,38.60
2018-08-22T10:23:59.820Z,38.90
2018-08-22T10:26:26.776Z,37.40
2018-08-22T10:28:54.063Z,37.10
2018-08-22T10:31:21.271Z,38.10
2018-08-22T10:33:48.179Z,37.00
2018-08-22T10:36:15.103Z,35.20
2018-08-22T10:38:42.004Z,36.00
2018-08-22T10:41:09.210Z,36.20
2018-08-22T10:43:36.071Z,35.80
2018-08-22T10:46:02.967Z,35.90
2018-08-22T10:48:30.136Z,35.40
2018-08-22T10:50:57.086Z,35.50
2018-08-22T10:53:23.956Z,35.40
2018-08-22T10:55:50.824Z,35.20
2018-08-22T10:58:17.754Z,34.40
2018-08-22T11:00:44.667Z,34.60
2018-08-22T11:03:11.578Z,34.50
2018-08-22T11:05:38.500Z,34.40
2018-08-22T11:08:06.131Z,34.10
2018-08-22T11:10:33.064Z,34.00
2018-08-22T11:12:59.968Z,34.10
2018-08-22T11:15:27.116Z,34.00
2018-08-22T11:17:54.023Z,33.80
2018-08-22T11:20:20.924Z,33.70
2018-08-22T11:22:53.614Z,34.10
2018-08-22T11:25:26.340Z,34.70
2018-08-22T11:27:59.043Z,34.70
2018-08-22T11:30:31.592Z,33.20
2018-08-22T11:33:04.108Z,33.60
2018-08-22T11:35:30.531Z,35.00
2018-08-22T11:37:57.397Z,33.90
2018-08-22T11:40:24.263Z,33.30
2018-08-22T11:42:51.201Z,32.90
2018-08-22T11:45:18.097Z,32.80
2018-08-22T11:47:44.968Z,33.30
2018-08-22T11:50:11.882Z,32.50
2018-08-22T11:52:38.787Z,32.90
2018-08-22T11:55:05.652Z,32.60
2018-08-22T11:57:32.567Z,32.40
2018-08-22T12:02:38.859Z,32.00
2018-08-22T12:05:05.853Z,32.20
2018-08-22T12:07:32.742Z,33.00
2018-08-22T12:09:59.648Z,31.90
2018-08-22T12:12:26.863Z,32.00
2018-08-22T12:14:53.731Z,31.20
2018-08-22T12:17:20.918Z,30.80
2018-08-22T12:19:47.979Z,30.80
2018-08-22T12:22:14.840Z,31.40
2018-08-22T12:24:41.755Z,32.00
2018-08-22T12:27:08.675Z,30.10
2018-08-22T12:29:35.548Z,30.20
2018-08-22T12:32:02.419Z,30.30
2018-08-22T12:34:29.328Z,30.50
2018-08-22T12:36:56.252Z,31.50
2018-08-22T12:39:23.175Z,31.40
2018-08-22T12:41:50.090Z,31.40
2018-08-22T12:44:16.959Z,32.10
2018-08-22T12:46:43.831Z,31.60
2018-08-22T12:49:10.783Z,31.40
2018-08-22T12:51:37.703Z,31.20
2018-08-22T12:54:04.644Z,30.50
2018-08-22T12:56:31.552Z,30.50
2018-08-22T12:58:58.764Z,30.60
2018-08-22T13:01:25.691Z,30.70
2018-08-22T13:03:52.555Z,30.70
2018-08-22T13:06:19.495Z,30.80
2018-08-22T13:08:46.363Z,30.00
2018-08-22T13:11:13.340Z,31.00
2018-08-22T13:13:40.271Z,31.20
2018-08-22T13:16:07.147Z,31.20
2018-08-22T13:18:34.021Z,31.80
2018-08-22T13:21:01.212Z,32.00
2018-08-22T13:23:28.088Z,32.80
2018-08-22T13:25:55.012Z,32.10
2018-08-22T13:28:21.879Z,31.40
2018-08-22T13:30:48.750Z,31.50
2018-08-22T13:33:15.655Z,31.10
2018-08-22T13:35:42.527Z,30.10
2018-08-22T13:38:09.456Z,30.80
2018-08-22T13:40:36.633Z,31.10
2018-08-22T13:43:03.508Z,31.70
2018-08-22T13:45:30.487Z,32.60
2018-08-22T13:47:57.408Z,32.60
2018-08-22T13:50:24.337Z,32.80
2018-08-22T13:52:51.215Z,32.00
2018-08-22T13:55:18.150Z,31.80
2018-08-22T13:57:45.011Z,31.50
2018-08-22T14:00:11.879Z,31.00
2018-08-22T14:02:39.103Z,30.50
2018-08-22T14:05:05.975Z,30.60
2018-08-22T14:07:32.891Z,30.20
2018-08-22T14:09:59.882Z,30.20
2018-08-22T14:12:26.811Z,30.00
2018-08-22T14:14:53.723Z,30.10
2018-08-22T14:17:20.631Z,31.30
2018-08-22T14:19:47.519Z,31.10
2018-08-22T14:22:14.804Z,31.30
2018-08-22T14:24:41.663Z,32.10
2018-08-22T14:27:08.536Z,32.30
2018-08-22T14:29:35.443Z,32.60
2018-08-22T14:32:02.330Z,32.70
2018-08-22T14:34:29.247Z,32.70
2018-08-22T14:36:56.155Z,32.50
2018-08-22T14:39:23.164Z,32.50
2018-08-22T14:41:49.968Z,32.40
2018-08-22T14:44:16.833Z,32.40
2018-08-22T14:46:43.748Z,32.20
2018-08-22T14:49:10.656Z,32.40
2018-08-22T14:51:37.563Z,33.30
2018-08-22T14:54:04.674Z,33.90
2018-08-22T14:56:31.659Z,33.30
2018-08-22T14:58:58.495Z,33.00
2018-08-22T15:01:25.407Z,32.90
2018-08-22T15:03:52.321Z,33.20
2018-08-22T15:06:19.320Z,33.30
2018-08-22T15:08:46.423Z,33.80
2018-08-22T15:11:13.319Z,33.90
2018-08-22T15:13:40.187Z,34.30
2018-08-22T15:16:07.098Z,34.40
2018-08-22T15:18:34.016Z,34.60
2018-08-22T15:21:00.879Z,34.60
2018-08-22T15:23:27.748Z,35.50
2018-08-22T15:25:54.662Z,35.60
2018-08-22T15:28:21.823Z,35.50
2018-08-22T15:30:48.703Z,35.40
2018-08-22T15:33:15.657Z,35.10
2018-08-22T15:35:42.570Z,34.70
2018-08-22T15:38:09.443Z,34.70
2018-08-22T15:40:36.307Z,35.00
2018-08-22T15:43:03.459Z,35.00
2018-08-22T15:45:30.328Z,34.70
2018-08-22T15:47:57.231Z,35.00
2018-08-22T15:50:24.145Z,35.10
2018-08-22T15:52:51.021Z,35.40
2018-08-22T15:55:18.067Z,36.20
2018-08-22T15:57:52.091Z,36.20
2018-08-22T16:00:24.756Z,35.80
2018-08-22T16:02:51.668Z,36.10
2018-08-22T16:05:18.591Z,36.60
2018-08-22T16:07:45.432Z,37.00
2018-08-22T16:10:12.348Z,37.10
2018-08-22T16:12:39.224Z,37.10
2018-08-22T16:15:06.136Z,37.70
2018-08-22T16:17:33.069Z,37.90
2018-08-22T16:19:59.949Z,38.20
2018-08-22T16:22:26.860Z,38.20
2018-08-22T16:24:53.729Z,38.60
2018-08-22T16:27:20.640Z,38.60
2018-08-22T16:29:47.512Z,39.30
2018-08-22T16:32:14.435Z,39.10
2018-08-22T16:34:41.307Z,39.00
2018-08-22T16:37:08.308Z,38.70
2018-08-22T16:39:39.228Z,39.10
2018-08-22T16:42:06.399Z,39.20
2018-08-22T16:44:33.315Z,39.30
2018-08-22T16:47:00.231Z,39.20
2018-08-22T16:49:27.295Z,39.60
2018-08-22T16:51:54.084Z,39.50
2018-08-22T16:54:20.959Z,39.80
2018-08-22T16:56:47.872Z,40.50
2018-08-22T16:59:14.739Z,40.80
2018-08-22T17:01:43.647Z,41.30
2018-08-22T17:04:10.496Z,42.10
2018-08-22T17:06:37.416Z,42.40
2018-08-22T17:09:05.788Z,43.30
2018-08-22T17:11:32.705Z,44.10
2018-08-22T17:13:59.581Z,44.70
2018-08-22T17:16:26.524Z,45.20
2018-08-22T17:18:53.483Z,45.50
2018-08-22T17:21:20.356Z,46.00
2018-08-22T17:23:47.618Z,46.20
2018-08-22T17:26:15.643Z,46.80
2018-08-22T17:28:44.378Z,46.90
2018-08-22T17:31:11.987Z,47.30
2018-08-22T17:33:48.840Z,47.90
2018-08-22T17:36:15.789Z,48.10
2018-08-22T17:38:44.804Z,48.30
2018-08-22T17:41:11.956Z,48.50
2018-08-22T17:44:14.336Z,49.00
2018-08-22T17:46:42.997Z,48.80
2018-08-22T17:49:09.883Z,49.20
2018-08-22T17:52:09.963Z,49.60
2018-08-22T17:54:37.136Z,49.80
2018-08-22T17:57:10.593Z,50.70
2018-08-22T17:59:37.616Z,50.70
2018-08-22T18:02:04.493Z,51.00
2018-08-22T18:04:37.120Z,51.20
2018-08-22T18:07:04.052Z,51.50
2018-08-22T18:09:30.920Z,51.80
2018-08-22T18:11:57.783Z,52.00
2018-08-22T18:14:24.679Z,52.10
2018-08-22T18:16:56.145Z,52.40
2018-08-22T18:19:23.195Z,52.70
2018-08-22T18:21:50.023Z,52.70
2018-08-22T18:24:17.368Z,53.00
2018-08-22T18:26:45.488Z,53.30
2018-08-22T18:29:12.355Z,53.70
2018-08-22T18:31:39.432Z,53.80
2018-08-22T18:34:06.305Z,54.00
2018-08-22T18:36:33.219Z,54.20
2018-08-22T18:39:01.544Z,54.50
2018-08-22T18:41:28.452Z,54.60
2018-08-22T18:43:55.367Z,54.70
2018-08-22T18:46:22.636Z,55.20
2018-08-22T18:48:49.508Z,55.30
2018-08-22T18:51:16.431Z,55.20
2018-08-22T18:53:43.341Z,55.40
2018-08-22T18:56:11.487Z,55.50
2018-08-22T18:58:38.812Z,55.50
2018-08-22T19:01:06.163Z,55.10
2018-08-22T19:03:33.211Z,55.50
2018-08-22T19:06:00.077Z,55.20
2018-08-22T19:08:27.031Z,55.00
2018-08-22T19:10:54.253Z,55.00
2018-08-22T19:13:22.128Z,55.00
2018-08-22T19:15:50.151Z,55.00
2018-08-22T19:18:17.475Z,54.80
2018-08-22T19:20:44.347Z,54.90
2018-08-22T19:23:11.218Z,54.90
2018-08-22T19:25:38.187Z,55.00
2018-08-22T19:28:05.040Z,55.50
2018-08-22T19:30:33.375Z,55.80
2018-08-22T19:33:00.271Z,55.90
2018-08-22T19:35:27.211Z,56.40
2018-08-22T19:37:59.796Z,56.80
2018-08-22T19:40:26.708Z,56.90
2018-08-22T19:42:53.575Z,57.20
2018-08-22T19:45:20.496Z,57.40
2018-08-22T19:47:47.361Z,57.20
2018-08-22T19:50:14.224Z,57.40
2018-08-22T19:52:41.139Z,56.90
2018-08-22T19:55:08.019Z,57.60
2018-08-22T19:57:38.100Z,57.90
2018-08-22T20:00:09.523Z,57.80
2018-08-22T20:02:36.886Z,58.20
2018-08-22T20:05:03.999Z,58.50
2018-08-22T20:07:30.920Z,58.70
2018-08-22T20:09:57.788Z,59.20
2018-08-22T20:12:30.424Z,59.40
2018-08-22T20:14:57.363Z,59.60
2018-08-22T20:17:28.624Z,59.70
2018-08-22T20:19:55.548Z,60.00
2018-08-22T20:22:57.024Z,59.80
2018-08-22T20:25:23.923Z,59.70
2018-08-22T20:27:50.832Z,59.50
2018-08-22T20:30:18.883Z,59.00
2018-08-22T20:32:45.803Z,58.90
2018-08-22T20:35:17.248Z,59.40
2018-08-22T20:37:44.147Z,59.20
2018-08-22T20:40:11.020Z,59.40
2018-08-22T20:42:38.056Z,59.80
2018-08-22T20:45:04.862Z,59.80
2018-08-22T20:47:31.763Z,59.90
2018-08-22T20:49:58.629Z,59.90
2018-08-22T20:52:25.539Z,60.00
2018-08-22T20:54:58.075Z,60.20
2018-08-22T20:57:25.519Z,60.20
2018-08-22T20:59:52.412Z,60.40
2018-08-22T21:02:19.386Z,60.80
2018-08-22T21:04:46.524Z,60.90
2018-08-22T21:07:13.475Z,61.00
2018-08-22T21:09:40.344Z,61.00
2018-08-22T21:12:07.217Z,60.30
2018-08-22T21:14:34.176Z,60.00
2018-08-22T21:17:01.039Z,59.80
2018-08-22T21:19:27.955Z,59.60
2018-08-22T21:21:54.824Z,59.50
2018-08-22T21:24:21.754Z,59.50
2018-08-22T21:26:48.615Z,60.00
2018-08-22T21:29:15.483Z,60.60
2018-08-22T21:31:42.418Z,61.10
2018-08-22T21:34:14.924Z,61.40
2018-08-22T21:36:43.069Z,62.00
2018-08-22T21:39:15.576Z,62.20
2018-08-22T21:41:43.742Z,62.60
2018-08-22T21:44:12.155Z,62.80
2018-08-22T21:46:39.080Z,62.90
2018-08-22T21:49:20.994Z,62.90
2018-08-22T21:51:47.920Z,62.90
2018-08-22T21:54:14.782Z,63.00
2018-08-22T21:56:41.678Z,62.90
2018-08-22T21:59:09.472Z,62.90
2018-08-22T22:01:44.275Z,63.00
2018-08-22T22:04:12.616Z,62.90
2018-08-22T22:06:39.548Z,62.60
2018-08-22T22:09:06.416Z,62.50
2018-08-22T22:11:33.332Z,62.60
2018-08-22T22:14:05.928Z,62.50
2018-08-22T22:16:32.791Z,62.20
2018-08-22T22:18:59.715Z,62.10
2018-08-22T22:21:26.583Z,62.00
2018-08-22T22:23:53.435Z,62.60
2018-08-22T22:26:20.359Z,61.80
2018-08-22T22:28:47.301Z,61.40
2018-08-22T22:31:15.288Z,61.30
2018-08-22T22:33:46.520Z,61.20
2018-08-22T22:36:13.654Z,61.30
2018-08-22T22:38:40.568Z,61.40
2018-08-22T22:41:07.436Z,61.40
2018-08-22T22:43:34.759Z,61.70
2018-08-22T22:46:01.665Z,61.70
2018-08-22T22:48:35.163Z,61.80
2018-08-22T22:51:02.076Z,62.10
2018-08-22T22:53:28.968Z,62.20
2018-08-22T22:55:55.916Z,62.50
2018-08-22T22:58:22.815Z,62.60
2018-08-22T23:00:49.728Z,63.30
2018-08-22T23:03:17.287Z,62.90
2018-08-22T23:05:44.155Z,63.10
2018-08-22T23:08:11.032Z,63.10
2018-08-22T23:10:37.971Z,63.20
2018-08-22T23:13:04.848Z,63.30
2018-08-22T23:15:31.757Z,63.20
2018-08-22T23:17:59.952Z,63.40
2018-08-22T23:20:45.999Z,63.50
2018-08-22T23:23:24.547Z,63.60
2018-08-22T23:25:51.651Z,63.80
2018-08-22T23:28:18.551Z,63.90
2018-08-22T23:30:45.746Z,63.80
2018-08-22T23:33:12.611Z,64.10
2018-08-22T23:35:39.534Z,64.00
2018-08-22T23:38:13.976Z,63.90
2018-08-22T23:40:40.895Z,63.90
2018-08-22T23:43:07.764Z,63.90
2018-08-22T23:45:35.597Z,63.90
2018-08-22T23:48:02.793Z,64.00
2018-08-22T23:50:35.436Z,63.90
2018-08-22T23:53:02.347Z,63.90
2018-08-22T23:55:29.247Z,63.90
2018-08-22T23:57:56.414Z,64.00
